Time;durP1;ratioP1;P1;durP2;ratioP2;P2;SDS_P1;SDS_P2;PMS_P1;PMS_P2;Temp;Humidity;BMP_temperature;BMP_pressure;BME280_temperature;BME280_humidity;BME280_pressure;Samples;Min_cycle;Max_cycle;Signal;HPM_P1;HPM_P2
2022/01/24 00:00:15;;;;;;;;;30.50;21.75;;;;;12.59;38.65;100104.28;6291617;22;102390;-81
2022/01/24 00:02:43;;;;;;;;;22.50;17.50;;;;;12.55;38.54;100094.78;6267020;22;104196;-81
2022/01/24 00:05:11;;;;;;;;;21.25;17.00;;;;;12.53;39.19;100103.09;6262065;22;102261;-81
2022/01/24 00:07:38;;;;;;;;;28.00;20.00;;;;;12.52;39.33;100104.13;6289789;22;104358;-81
2022/01/24 00:10:10;;;;;;;;;24.00;17.50;;;;;12.50;38.42;100103.47;6291027;22;102689;-76
2022/01/24 00:13:21;;;;;;;;;24.25;19.75;;;;;12.47;39.22;100098.41;6293035;22;104649;-76
2022/01/24 00:18:26;;;;;;;;;23.25;21.25;;;;;12.45;38.75;100101.28;6288550;22;101784;-81
2022/01/24 00:29:09;;;;;;;;;26.25;21.75;;;;;12.35;39.43;100113.34;6304920;22;102165;-76
2022/01/24 00:31:36;;;;;;;;;27.75;24.50;;;;;12.33;38.97;100102.69;6304932;22;102595;-76
2022/01/24 00:34:04;;;;;;;;;26.75;21.75;;;;;12.31;38.65;100099.31;6305255;22;104250;-76
2022/01/24 00:36:31;;;;;;;;;32.75;25.75;;;;;12.30;39.02;100103.03;6308363;22;102456;-76
2022/01/24 00:38:58;;;;;;;;;29.50;24.50;;;;;12.30;39.00;100102.19;6305448;22;102454;-76
2022/01/24 00:41:25;;;;;;;;;29.00;21.00;;;;;12.30;39.42;100096.75;6300650;22;102385;-76
2022/01/24 00:46:59;;;;;;;;;27.00;21.00;;;;;12.26;38.73;100093.56;6302865;22;102475;-76
2022/01/24 00:49:45;;;;;;;;;27.75;22.50;;;;;12.24;39.44;100103.75;6287345;22;102472;-76
2022/01/24 00:54:52;;;;;;;;;28.75;21.25;;;;;12.19;39.57;100113.44;6286742;22;108683;-76
2022/01/24 00:57:19;;;;;;;;;27.75;24.75;;;;;12.20;39.57;100117.84;6280529;22;102233;-76
2022/01/24 00:59:47;;;;;;;;;17.75;15.00;;;;;12.21;39.23;100114.09;6297330;22;102389;-76
2022/01/24 01:02:15;;;;;;;;;27.50;24.00;;;;;12.19;38.67;100110.72;6239741;22;102534;-76
2022/01/24 01:07:27;;;;;;;;;33.00;26.50;;;;;12.17;39.10;100091.03;6258748;22;102674;-76
2022/01/24 01:18:15;;;;;;;;;28.75;25.75;;;;;12.10;39.15;100079.22;6302679;22;102288;-76
2022/01/24 01:23:23;;;;;;;;;27.25;22.00;;;;;12.08;38.97;100085.66;6303664;22;102520;-76
2022/01/24 01:25:51;;;;;;;;;26.25;23.00;;;;;12.08;39.08;100076.69;6300902;22;110076;-76
2022/01/24 01:28:19;;;;;;;;;28.25;24.50;;;;;12.09;38.91;100067.53;6301781;22;102066;-76
2022/01/24 01:30:50;;;;;;;;;34.25;29.00;;;;;12.08;38.71;100069.38;6298855;22;102179;-76
2022/01/24 01:33:38;;;;;;;;;31.00;25.75;;;;;12.06;38.83;100067.88;6276186;22;102471;-76
2022/01/24 01:36:19;;;;;;;;;24.50;17.75;;;;;12.05;38.80;100077.03;6271676;22;108677;-76
2022/01/24 01:58:13;;;;;;;;;30.25;25.25;;;;;11.94;39.26;100099.06;6206296;22;108807;-81
2022/01/24 02:00:45;;;;;;;;;26.00;26.00;;;;;11.94;38.86;100099.06;6290131;22;102455;-81
2022/01/24 02:03:12;;;;;;;;;26.50;22.75;;;;;11.91;39.56;100102.16;6261787;22;104701;-81
2022/01/24 02:05:40;;;;;;;;;26.50;22.50;;;;;11.90;39.16;100100.44;6245472;22;102322;-80
2022/01/24 02:08:07;;;;;;;;;33.00;28.75;;;;;11.86;38.85;100107.22;6282922;22;103774;-81
2022/01/24 02:10:36;;;;;;;;;30.75;25.50;;;;;11.84;39.22;100112.00;6234632;22;102143;-81
2022/01/24 02:13:03;;;;;;;;;33.00;26.25;;;;;11.81;39.65;100109.59;6183289;22;103593;-81
2022/01/24 02:18:33;;;;;;;;;33.75;25.50;;;;;11.81;39.29;100109.59;6296412;22;109107;-80
2022/01/24 02:23:46;;;;;;;;;26.00;22.75;;;;;11.83;39.40;100115.72;6288113;22;102128;-81
2022/01/24 02:26:17;;;;;;;;;29.25;25.00;;;;;11.82;39.41;100112.16;6267322;22;102558;-81
2022/01/24 02:28:59;;;;;;;;;32.00;27.75;;;;;11.80;39.16;100116.03;6298780;22;104030;-81
2022/01/24 02:33:53;;;;;;;;;33.50;26.50;;;;;11.81;39.13;100113.16;6285103;22;102116;-81
2022/01/24 02:36:22;;;;;;;;;38.25;27.50;;;;;11.82;39.19;100108.59;6283711;22;102550;-81
2022/01/24 02:49:52;;;;;;;;;32.25;29.00;;;;;11.76;38.69;100123.69;6275212;22;108837;-80
2022/01/24 02:52:22;;;;;;;;;30.00;27.00;;;;;11.74;39.24;100111.31;6287603;22;102191;-81
2022/01/24 02:54:50;;;;;;;;;28.50;25.50;;;;;11.74;38.74;100106.75;6305442;22;102435;-81
2022/01/24 02:57:19;;;;;;;;;31.75;25.75;;;;;11.71;38.93;100106.22;6296866;22;102167;-81
2022/01/24 02:59:46;;;;;;;;;26.50;21.25;;;;;11.70;38.76;100115.38;6308007;22;104170;-80
2022/01/24 03:02:13;;;;;;;;;27.25;23.50;;;;;11.67;38.87;100112.97;6299497;22;102094;-80
2022/01/24 03:04:40;;;;;;;;;30.00;24.75;;;;;11.64;38.92;100106.91;6311841;22;102122;-81
2022/01/24 03:07:09;;;;;;;;;32.75;28.00;;;;;11.68;39.34;100115.53;6296362;22;102358;-81
2022/01/24 03:09:36;;;;;;;;;33.50;26.25;;;;;11.73;38.90;100115.91;6284598;22;103937;-81
2022/01/24 03:12:12;;;;;;;;;33.50;28.25;;;;;11.76;38.55;100109.28;6301698;22;102345;-81
2022/01/24 03:14:39;;;;;;;;;29.50;22.50;;;;;11.80;38.30;100113.34;6309144;22;102077;-81
2022/01/24 03:17:06;;;;;;;;;31.25;27.00;;;;;11.86;39.29;100118.06;6301782;22;102445;-81
2022/01/24 03:19:33;;;;;;;;;35.75;27.50;;;;;11.90;38.52;100116.72;6277044;22;103983;-81
2022/01/24 03:22:00;;;;;;;;;30.00;25.25;;;;;11.95;38.14;100126.03;6306999;22;102357;-81
2022/01/24 03:24:27;;;;;;;;;28.25;26.75;;;;;11.99;38.33;100130.06;6305285;22;102649;-81
2022/01/24 03:26:54;;;;;;;;;32.25;27.25;;;;;12.01;38.68;100130.75;6301755;22;102410;-81
2022/01/24 03:29:21;;;;;;;;;27.25;24.00;;;;;12.05;38.49;100136.69;6302792;22;103987;-81
2022/01/24 03:31:48;;;;;;;;;30.25;27.00;;;;;12.07;38.38;100135.47;6307187;22;102338;-81
2022/01/24 03:34:15;;;;;;;;;34.75;27.25;;;;;12.12;38.14;100136.81;6301723;22;102205;-80
2022/01/24 03:36:43;;;;;;;;;26.50;25.00;;;;;12.10;37.80;100142.44;6307681;22;102732;-76
2022/01/24 03:39:10;;;;;;;;;36.25;26.75;;;;;12.14;37.98;100146.47;6311663;22;104199;-76
2022/01/24 03:41:39;;;;;;;;;43.50;27.75;;;;;12.15;37.89;100140.06;6304031;22;102295;-76
2022/01/24 03:44:12;;;;;;;;;30.00;26.75;;;;;12.17;38.59;100139.84;6311304;22;102394;-76
2022/01/24 03:47:01;;;;;;;;;37.75;28.25;;;;;12.18;38.68;100130.72;6292959;22;102328;-76
2022/01/24 03:52:16;;;;;;;;;31.50;28.50;;;;;12.23;38.31;100144.59;6265605;22;102226;-76
2022/01/24 03:54:43;;;;;;;;;31.25;27.25;;;;;12.23;38.17;100140.03;6303370;22;102605;-76
2022/01/24 03:57:12;;;;;;;;;31.00;28.00;;;;;12.25;38.01;100150.69;6306914;22;102374;-76
2022/01/24 03:59:39;;;;;;;;;36.25;31.25;;;;;12.26;38.14;100155.94;6296098;22;108689;-76
2022/01/24 04:02:06;;;;;;;;;36.00;29.25;;;;;12.28;38.47;100153.06;6299101;22;102120;-76
2022/01/24 04:04:33;;;;;;;;;33.00;28.75;;;;;12.28;38.20;100151.19;6307214;22;102302;-76
2022/01/24 04:07:00;;;;;;;;;27.25;25.75;;;;;12.29;38.38;100155.56;6289365;22;101976;-76
2022/01/24 04:09:27;;;;;;;;;36.75;27.50;;;;;12.28;38.10;100153.91;6291936;22;109269;-76
2022/01/24 04:11:57;;;;;;;;;37.25;29.25;;;;;12.28;37.73;100148.47;6292808;22;102224;-76
2022/01/24 04:17:39;;;;;;;;;35.25;29.25;;;;;12.29;37.77;100155.56;6307716;22;102494;-76
2022/01/24 04:22:11;;;;;;;;;30.75;27.00;;;;;12.28;38.12;100151.19;6306061;22;102147;-76
2022/01/24 04:24:38;;;;;;;;;32.25;28.00;;;;;12.29;38.41;100162.91;6300533;22;102433;-76
2022/01/24 04:27:05;;;;;;;;;32.75;27.00;;;;;12.28;38.36;100159.34;6307056;22;102495;-76
2022/01/24 04:29:32;;;;;;;;;38.25;29.25;;;;;12.28;37.93;100162.03;6311533;22;104064;-76
2022/01/24 04:32:00;;;;;;;;;33.75;27.00;;;;;12.26;37.89;100168.66;6272164;22;102225;-76
2022/01/24 04:34:27;;;;;;;;;32.75;26.50;;;;;12.23;38.34;100158.16;6296536;22;102255;-76
2022/01/24 04:36:54;;;;;;;;;30.75;26.00;;;;;12.21;38.06;100158.31;6308014;22;102589;-76
2022/01/24 04:39:21;;;;;;;;;34.25;28.50;;;;;12.20;38.07;100166.66;6297352;22;104155;-76
2022/01/24 04:41:51;;;;;;;;;34.00;28.25;;;;;12.17;38.15;100173.25;6303234;22;102483;-76
2022/01/24 04:47:15;;;;;;;;;29.75;24.25;;;;;12.17;37.69;100172.41;6304352;22;102555;-76
2022/01/24 04:55:13;;;;;;;;;32.00;27.25;;;;;12.12;38.63;100178.34;6304708;22;102091;-76
2022/01/24 04:57:40;;;;;;;;;34.75;29.50;;;;;12.11;37.89;100182.09;6307994;22;102302;-76
2022/01/24 05:00:09;;;;;;;;;27.00;22.25;;;;;12.10;37.88;100176.84;6300005;22;105083;-76
2022/01/24 05:02:36;;;;;;;;;31.25;29.25;;;;;12.07;37.84;100168.00;6303122;22;102586;-76
2022/01/24 05:05:05;;;;;;;;;37.50;29.50;;;;;12.06;38.42;100168.19;6308552;22;102312;-76
2022/01/24 05:07:32;;;;;;;;;28.75;27.75;;;;;12.05;37.83;100163.78;6305345;22;105555;-76
2022/01/24 05:25:51;;;;;;;;;33.00;30.00;;;;;11.86;38.34;100181.25;6300034;22;102105;-76
2022/01/24 05:28:18;;;;;;;;;31.50;27.00;;;;;11.83;38.04;100183.47;6273273;22;102216;-76
2022/01/24 05:30:46;;;;;;;;;31.00;26.00;;;;;11.83;38.72;100187.03;6291640;22;104030;-76
2022/01/24 05:33:13;;;;;;;;;32.50;30.50;;;;;11.78;38.76;100191.25;6304875;22;103028;-76
2022/01/24 05:35:43;;;;;;;;;36.25;26.00;;;;;11.77;38.71;100192.28;6303575;22;102555;-76
2022/01/24 05:38:10;;;;;;;;;33.25;30.25;;;;;11.76;38.39;100190.56;6301945;22;102176;-76
2022/01/24 05:40:38;;;;;;;;;29.50;25.00;;;;;11.76;38.39;100188.72;6292169;22;104171;-76
2022/01/24 05:43:07;;;;;;;;;32.00;27.00;;;;;11.77;38.46;100182.28;6293875;22;103057;-76
2022/01/24 05:45:34;;;;;;;;;31.25;27.50;;;;;11.81;38.50;100182.78;6296475;22;102390;-76
2022/01/24 05:48:01;;;;;;;;;31.00;26.75;;;;;11.79;37.99;100188.41;6293122;22;102147;-76
2022/01/24 05:50:28;;;;;;;;;27.50;24.50;;;;;11.80;38.48;100186.50;6297807;22;105119;-75
2022/01/24 05:52:55;;;;;;;;;41.00;32.00;;;;;11.79;38.53;100190.25;6303074;22;102292;-76
2022/01/24 05:55:22;;;;;;;;;40.75;32.25;;;;;11.80;37.83;100195.47;6303642;22;102503;-76
2022/01/24 05:57:52;;;;;;;;;29.25;26.75;;;;;11.80;38.60;100197.34;6308122;22;102368;-76
2022/01/24 06:00:20;;;;;;;;;30.00;26.75;;;;;11.78;38.39;100199.38;6302702;22;103980;-76
2022/01/24 06:02:47;;;;;;;;;29.50;26.75;;;;;11.78;38.06;100199.38;6304941;22;102570;-76
2022/01/24 06:05:14;;;;;;;;;33.75;28.25;;;;;11.76;38.32;100207.69;6303096;22;102249;-76
2022/01/24 06:07:41;;;;;;;;;34.50;29.75;;;;;11.75;38.38;100205.16;6304497;22;102133;-76
2022/01/24 06:10:08;;;;;;;;;36.00;30.00;;;;;11.74;37.87;100198.88;6304385;22;104002;-76
2022/01/24 06:12:35;;;;;;;;;33.50;28.25;;;;;11.72;38.07;100200.91;6303146;22;102154;-76
2022/01/24 06:15:03;;;;;;;;;36.75;33.00;;;;;11.68;38.50;100198.69;6306385;22;102782;-76
2022/01/24 06:17:30;;;;;;;;;35.50;27.00;;;;;11.65;38.70;100194.44;6272788;22;102304;-76
2022/01/24 06:19:57;;;;;;;;;37.50;33.00;;;;;11.63;38.49;100202.75;6302230;22;103983;-76
2022/01/24 06:22:24;;;;;;;;;27.75;22.50;;;;;11.58;38.68;100199.69;6303339;22;102455;-76
2022/01/24 06:24:51;;;;;;;;;23.50;15.00;;;;;11.55;38.80;100199.19;6301530;22;102173;-76
2022/01/24 06:27:38;;;;;;;;;39.25;26.00;;;;;11.52;38.46;100194.97;6307740;22;103157;-76
2022/01/24 06:30:06;;;;;;;;;34.25;27.25;;;;;11.52;38.45;100189.53;6306672;22;103973;-76
2022/01/24 06:32:33;;;;;;;;;34.50;29.00;;;;;11.53;38.61;100206.63;6305954;22;102272;-76
2022/01/24 06:35:00;;;;;;;;;32.75;32.75;;;;;11.53;38.48;100206.63;6300517;22;102388;-76
2022/01/24 06:37:27;;;;;;;;;38.25;29.50;;;;;11.52;38.75;100205.78;6308319;22;102213;-76
2022/01/24 06:39:55;;;;;;;;;28.25;25.25;;;;;11.52;38.57;100219.34;6277759;22;103959;-75
2022/01/24 06:42:23;;;;;;;;;41.50;31.00;;;;;11.53;38.52;100221.00;6310533;22;102263;-76
2022/01/24 06:44:51;;;;;;;;;37.25;31.25;;;;;11.55;38.58;100229.84;6312683;22;102200;-76
2022/01/24 06:47:18;;;;;;;;;39.00;35.50;;;;;11.54;38.51;100233.53;6310909;22;102404;-76
2022/01/24 06:49:45;;;;;;;;;26.50;25.25;;;;;11.55;38.21;100242.53;6311421;22;103814;-76
2022/01/24 06:52:13;;;;;;;;;39.25;35.25;;;;;11.50;38.18;100240.31;6312357;22;102255;-76
2022/01/24 06:54:41;;;;;;;;;41.00;32.50;;;;;11.50;38.47;100245.72;6284627;22;103151;-76
2022/01/24 06:57:12;;;;;;;;;31.00;24.75;;;;;11.50;38.49;100253.00;6284254;22;102304;-76
2022/01/24 06:59:43;;;;;;;;;42.25;32.75;;;;;11.47;38.25;100251.50;6281271;22;108774;-76
2022/01/24 07:02:11;;;;;;;;;32.50;30.25;;;;;11.46;38.53;100238.09;6303131;22;102360;-76
2022/01/24 07:04:39;;;;;;;;;40.00;35.00;;;;;11.46;38.16;100254.38;6305217;22;102287;-76
2022/01/24 07:07:07;;;;;;;;;36.00;31.00;;;;;11.45;38.33;100245.38;6276556;22;102527;-76
2022/01/24 07:09:34;;;;;;;;;35.75;30.00;;;;;11.44;38.04;100243.69;6297251;22;104101;-76
2022/01/24 07:12:03;;;;;;;;;28.00;24.50;;;;;11.39;38.32;100256.88;6302744;22;102024;-76
2022/01/24 07:14:30;;;;;;;;;12.75;10.75;;;;;11.36;38.50;100259.91;6277565;22;108402;-76
2022/01/24 07:19:29;;;;;;;;;39.75;32.25;;;;;11.35;38.37;100268.19;6285905;22;103961;-75
2022/01/24 07:21:57;;;;;;;;;33.00;29.25;;;;;11.39;38.50;100259.56;6310079;22;102314;-76
2022/01/24 07:24:24;;;;;;;;;37.75;32.00;;;;;11.41;38.21;100271.09;6299812;22;102460;-76
2022/01/24 07:26:51;;;;;;;;;32.00;30.75;;;;;11.44;38.13;100272.63;6308053;22;102061;-80
2022/01/24 07:29:19;;;;;;;;;27.25;26.50;;;;;11.44;38.05;100272.63;6308492;22;104079;-80
2022/01/24 07:31:49;;;;;;;;;30.25;27.25;;;;;11.45;38.23;100263.50;6304339;22;108303;-79
2022/01/24 07:34:16;;;;;;;;;21.00;16.50;;;;;11.44;37.93;100264.50;6295823;22;101974;-79
2022/01/24 07:36:43;;;;;;;;;37.75;30.50;;;;;11.41;38.35;100262.97;6271841;22;104409;-80
2022/01/24 07:39:11;;;;;;;;;36.50;30.75;;;;;11.41;38.29;100268.41;6308709;22;108955;-80
2022/01/24 07:41:44;;;;;;;;;31.00;27.25;;;;;11.41;38.08;100272.97;6290166;22;102100;-80
2022/01/24 07:44:12;;;;;;;;;33.50;31.00;;;;;11.39;38.01;100265.00;6304905;22;102019;-79
2022/01/24 07:46:39;;;;;;;;;37.75;31.00;;;;;11.38;38.21;100266.03;6290873;22;102173;-80
2022/01/24 07:49:07;;;;;;;;;39.00;31.25;;;;;11.36;38.20;100270.75;6309381;22;103479;-80
2022/01/24 07:51:34;;;;;;;;;31.75;30.00;;;;;11.36;38.10;100276.16;6292988;22;102244;-80
2022/01/24 07:54:01;;;;;;;;;36.75;29.00;;;;;11.36;38.05;100276.16;6309577;22;102535;-80
2022/01/24 07:56:28;;;;;;;;;39.50;34.00;;;;;11.35;38.25;100268.19;6310021;22;102385;-80
2022/01/24 07:58:56;;;;;;;;;44.00;31.75;;;;;11.34;38.13;100266.53;6305130;22;103927;-80
2022/01/24 08:01:23;;;;;;;;;30.50;29.25;;;;;11.32;37.90;100272.09;6301544;22;102285;-80
2022/01/24 08:03:51;;;;;;;;;37.50;30.75;;;;;11.30;38.48;100271.41;6282924;22;102179;-80
2022/01/24 08:06:19;;;;;;;;;37.00;30.25;;;;;11.26;38.61;100271.94;6310359;22;102106;-80
2022/01/24 08:08:46;;;;;;;;;37.25;29.50;;;;;11.22;38.43;100263.25;6305184;22;102813;-77
2022/01/24 08:11:16;;;;;;;;;34.00;30.50;;;;;11.23;38.34;100272.25;6270468;22;102754;-80
2022/01/24 08:13:43;;;;;;;;;29.25;24.25;;;;;11.21;38.49;100269.72;6307521;22;102637;-80
2022/01/24 08:16:10;;;;;;;;;36.50;30.75;;;;;11.29;38.48;100268.88;6307203;22;102393;-80
2022/01/24 08:18:37;;;;;;;;;36.00;30.50;;;;;11.33;37.82;100260.25;6284408;22;104117;-80
2022/01/24 08:21:04;;;;;;;;;33.75;26.75;;;;;11.36;38.03;100259.91;6305504;22;102317;-80
2022/01/24 08:23:31;;;;;;;;;38.75;33.00;;;;;11.40;38.10;100280.25;6310540;22;104726;-80
2022/01/24 08:25:58;;;;;;;;;40.50;33.75;;;;;11.42;37.90;100272.81;6309566;22;102549;-80
2022/01/24 08:28:25;;;;;;;;;36.75;30.50;;;;;11.46;37.74;100271.47;6303401;22;103546;-80
2022/01/24 08:30:53;;;;;;;;;30.75;23.50;;;;;11.47;37.74;100278.59;6305993;22;102221;-80
2022/01/24 08:33:20;;;;;;;;;44.50;31.00;;;;;11.48;37.76;100280.25;6296525;22;102264;-80
2022/01/24 08:35:47;;;;;;;;;37.75;34.50;;;;;11.46;37.83;100276.88;6314573;22;102407;-80
2022/01/24 08:38:14;;;;;;;;;36.75;31.50;;;;;11.47;38.07;100275.03;6311608;22;104179;-80
2022/01/24 08:40:42;;;;;;;;;37.25;33.50;;;;;11.46;37.96;100273.31;6306511;22;102485;-80
2022/01/24 08:43:10;;;;;;;;;31.00;30.75;;;;;11.45;37.66;100268.91;6306926;22;102178;-80
2022/01/24 08:45:48;;;;;;;;;38.50;32.50;;;;;11.45;38.07;100275.19;6308086;22;102732;-80
2022/01/24 08:48:17;;;;;;;;;32.25;25.50;;;;;11.43;37.74;100266.38;6304909;22;108803;-80
2022/01/24 08:50:44;;;;;;;;;29.50;25.75;;;;;11.43;38.13;100274.50;6295947;22;102134;-80
2022/01/24 08:53:11;;;;;;;;;37.25;30.00;;;;;11.43;38.15;100271.81;6309942;22;104280;-80
2022/01/24 08:55:38;;;;;;;;;35.25;30.75;;;;;11.43;38.24;100271.81;6309743;22;102472;-80
2022/01/24 08:58:06;;;;;;;;;32.00;27.25;;;;;11.39;38.43;100275.00;6306111;22;104165;-80
2022/01/24 09:00:34;;;;;;;;;35.50;31.50;;;;;11.35;38.37;100262.78;6281749;22;102328;-80
2022/01/24 09:03:01;;;;;;;;;36.75;34.75;;;;;11.34;38.21;100261.13;6300457;22;104604;-80
2022/01/24 09:05:34;;;;;;;;;41.75;32.75;;;;;11.36;38.23;100268.03;6307882;22;102506;-80
2022/01/24 09:08:03;;;;;;;;;42.00;31.50;;;;;11.39;38.27;100269.59;6292119;22;111031;-80
2022/01/24 09:10:31;;;;;;;;;40.00;35.75;;;;;11.40;38.32;100274.81;6310541;22;102471;-80
2022/01/24 09:12:58;;;;;;;;;39.25;29.25;;;;;11.41;38.01;100273.81;6297009;22;102107;-80
2022/01/24 09:15:25;;;;;;;;;38.25;30.50;;;;;11.41;37.71;100268.41;6273906;22;102342;-80
2022/01/24 09:17:52;;;;;;;;;36.00;31.75;;;;;11.42;38.47;100275.53;6303840;22;104064;-80
2022/01/24 09:20:19;;;;;;;;;35.50;30.50;;;;;11.42;37.98;100266.53;6278324;22;102499;-80
2022/01/24 09:22:47;;;;;;;;;39.25;33.25;;;;;11.42;38.29;100269.25;6309530;22;102058;-77
2022/01/24 09:25:15;;;;;;;;;32.75;27.50;;;;;11.42;37.49;100275.53;6305616;22;102123;-80
2022/01/24 09:27:43;;;;;;;;;19.25;16.50;;;;;11.41;38.07;100262.97;6299317;22;110944;-80
2022/01/24 09:30:11;;;;;;;;;37.25;30.75;;;;;11.42;38.28;100269.25;6305182;22;102114;-81
2022/01/24 09:32:38;;;;;;;;;37.00;30.00;;;;;11.41;38.40;100278.38;6312095;22;102477;-80
2022/01/24 09:35:06;;;;;;;;;39.25;31.50;;;;;11.43;38.25;100285.34;6305825;22;102711;-80
2022/01/24 09:37:33;;;;;;;;;36.50;28.75;;;;;11.43;38.25;100282.63;6306338;22;103869;-80
2022/01/24 09:40:00;;;;;;;;;40.75;32.75;;;;;11.44;37.64;100278.91;6304360;22;102173;-80
2022/01/24 09:42:27;;;;;;;;;33.75;28.00;;;;;11.42;38.31;100275.53;6307756;22;102332;-80
2022/01/24 09:44:55;;;;;;;;;36.25;31.25;;;;;11.43;37.87;100288.06;6301356;22;102141;-80
2022/01/24 09:47:22;;;;;;;;;37.75;27.50;;;;;11.43;37.77;100276.38;6310202;22;104007;-80
2022/01/24 09:49:50;;;;;;;;;33.00;30.00;;;;;11.43;38.36;100277.22;6306026;22;102375;-80
2022/01/24 09:52:17;;;;;;;;;30.75;27.50;;;;;11.41;38.21;100273.81;6306771;22;102685;-77
2022/01/24 09:54:44;;;;;;;;;35.50;28.25;;;;;11.41;37.99;100268.41;6310772;22;102143;-80
2022/01/24 09:57:11;;;;;;;;;35.75;31.75;;;;;11.42;38.07;100267.41;6308420;22;104069;-80
2022/01/24 09:59:38;;;;;;;;;29.75;27.00;;;;;11.47;37.62;100265.03;6302698;22;102491;-80
2022/01/24 10:02:05;;;;;;;;;37.75;30.25;;;;;11.49;38.11;100265.69;6310206;22;102133;-80
2022/01/24 10:04:33;;;;;;;;;20.50;20.50;;;;;11.51;37.96;100258.28;6309563;22;102090;-80
2022/01/24 10:07:15;;;;;;;;;27.25;23.75;;;;;11.54;37.46;100262.50;6305861;22;104111;-80
2022/01/24 10:09:47;;;;;;;;;28.75;25.75;;;;;11.55;37.79;100251.50;6308504;22;102064;-80
2022/01/24 10:17:55;;;;;;;;;30.75;25.25;;;;;11.62;38.00;100246.25;6306399;22;108773;-80
2022/01/24 10:20:24;;;;;;;;;27.75;24.25;;;;;11.62;38.14;100249.81;6309316;22;102226;-80
2022/01/24 10:23:24;;;;;;;;;32.50;25.50;;;;;11.62;37.39;100244.38;6307704;22;101865;-80
2022/01/24 10:26:02;;;;;;;;;32.50;25.75;;;;;11.63;37.71;100239.81;6307268;22;102239;-80
2022/01/24 10:28:39;;;;;;;;;32.25;27.25;;;;;11.65;37.36;100232.38;6311238;22;103932;-80
2022/01/24 10:31:39;;;;;;;;;29.00;22.25;;;;;11.68;37.90;100225.78;6314424;22;102236;-81
2022/01/24 10:34:13;;;;;;;;;31.75;25.25;;;;;11.68;37.57;100225.78;6245137;22;102416;-80
2022/01/24 10:36:43;;;;;;;;;20.25;18.50;;;;;11.69;38.08;100225.63;6305907;22;102129;-80
2022/01/24 10:39:15;;;;;;;;;26.25;24.75;;;;;11.71;37.82;100222.75;6286756;22;104119;-80
2022/01/24 10:44:28;;;;;;;;;34.00;26.50;;;;;11.73;37.55;100216.16;6302860;22;102598;-79
2022/01/24 10:47:23;;;;;;;;;26.50;23.50;;;;;11.74;37.63;100219.72;6309310;22;102138;-80
2022/01/24 10:49:51;;;;;;;;;30.00;27.25;;;;;11.76;37.18;100212.25;6305524;22;108914;-80
2022/01/24 10:52:23;;;;;;;;;20.25;17.25;;;;;11.77;37.72;100203.13;6311068;22;104246;-79
2022/01/24 10:55:14;;;;;;;;;28.25;24.00;;;;;11.78;37.22;100210.22;6307603;22;101924;-80
2022/01/24 10:57:42;;;;;;;;;26.75;24.00;;;;;11.79;37.38;100206.50;6309645;22;102149;-80
2022/01/24 11:00:28;;;;;;;;;26.00;22.25;;;;;11.78;37.52;100211.09;6305166;22;103982;-80
2022/01/24 11:02:57;;;;;;;;;26.00;21.75;;;;;11.78;37.21;100205.66;6302605;22;102298;-80
2022/01/24 11:05:29;;;;;;;;;25.25;21.75;;;;;11.80;37.11;100203.63;6283639;22;102197;-80
2022/01/24 11:08:03;;;;;;;;;30.25;25.00;;;;;11.80;37.58;100203.63;6305947;22;102102;-80
2022/01/24 11:10:32;;;;;;;;;25.00;21.50;;;;;11.80;37.43;100198.19;6305831;22;104102;-80
2022/01/24 11:13:02;;;;;;;;;20.75;16.50;;;;;11.81;37.70;100191.75;6293479;22;102151;-80
2022/01/24 11:15:29;;;;;;;;;23.50;20.00;;;;;11.81;38.19;100189.06;6310242;22;102021;-80
2022/01/24 11:17:58;;;;;;;;;21.75;20.50;;;;;11.82;38.16;100184.47;6318120;22;102962;-80
2022/01/24 11:20:31;;;;;;;;;25.50;23.50;;;;;11.82;37.42;100168.22;6301004;22;108630;-80
2022/01/24 11:23:01;;;;;;;;;22.00;19.25;;;;;11.85;37.77;100173.28;6291458;22;102120;-80
2022/01/24 11:25:30;;;;;;;;;20.75;19.00;;;;;11.86;37.46;100175.00;6301253;22;102129;-80
2022/01/24 11:27:57;;;;;;;;;28.25;19.50;;;;;11.84;37.18;100166.19;6311531;22;102532;-80
2022/01/24 11:30:30;;;;;;;;;25.50;20.00;;;;;11.85;37.65;100157.03;6292904;22;104077;-79
2022/01/24 11:33:04;;;;;;;;;26.50;19.75;;;;;11.85;37.79;100162.44;6257420;22;102432;-80
2022/01/24 11:35:43;;;;;;;;;24.00;20.00;;;;;11.84;37.95;100139.91;6304182;22;102562;-80
2022/01/24 11:38:33;;;;;;;;;24.25;20.75;;;;;11.87;37.82;100141.44;6284648;22;102441;-79
2022/01/24 11:41:21;;;;;;;;;19.75;17.00;;;;;11.89;38.08;100147.53;6287972;22;109153;-80
2022/01/24 11:43:50;;;;;;;;;21.25;20.50;;;;;11.90;37.20;100146.53;6244641;22;102581;-80
2022/01/24 11:46:48;;;;;;;;;21.75;20.75;;;;;11.90;37.43;100151.94;6297439;22;102386;-80
2022/01/24 11:49:22;;;;;;;;;19.25;16.50;;;;;11.89;37.56;100150.25;6300290;22;104397;-80
2022/01/24 11:51:52;;;;;;;;;25.50;20.25;;;;;11.89;37.23;100145.66;6287673;22;103868;-80
2022/01/24 11:57:25;;;;;;;;;20.25;17.75;;;;;11.87;37.62;100145.00;6308126;22;103730;-80
2022/01/24 12:00:14;;;;;;;;;19.75;17.25;;;;;11.87;37.90;100145.00;6308132;22;102242;-80
2022/01/24 12:02:52;;;;;;;;;19.50;17.75;;;;;11.87;37.68;100146.88;6180149;22;108975;-79
2022/01/24 12:05:23;;;;;;;;;23.25;20.00;;;;;11.87;37.81;100144.16;6297727;22;102533;-80
2022/01/24 12:08:03;;;;;;;;;17.25;15.50;;;;;11.88;37.34;100151.28;6231731;22;102319;-80
2022/01/24 12:10:51;;;;;;;;;25.25;19.50;;;;;11.85;37.67;100146.19;6260888;22;102481;-79
2022/01/24 12:13:34;;;;;;;;;20.00;18.75;;;;;11.85;37.94;100157.03;6297466;22;104110;-80
2022/01/24 12:16:04;;;;;;;;;16.75;16.00;;;;;11.85;37.66;100152.47;6311484;22;102192;-80
2022/01/24 12:18:33;;;;;;;;;18.50;16.00;;;;;11.84;37.87;100155.34;6263488;22;103791;-80
2022/01/24 12:21:06;;;;;;;;;18.75;17.00;;;;;11.85;38.01;100141.63;6264512;22;102476;-80
2022/01/24 12:23:40;;;;;;;;;19.00;16.50;;;;;11.87;37.50;100144.16;6036071;22;108556;-80
2022/01/24 12:26:47;;;;;;;;;16.00;13.50;;;;;11.88;37.31;100140.44;6246870;22;102534;-80
2022/01/24 12:29:22;;;;;;;;;17.25;15.00;;;;;11.89;37.76;100150.25;6262486;22;102416;-80
2022/01/24 12:31:54;;;;;;;;;17.25;17.00;;;;;11.89;37.83;100144.81;6063939;22;102471;-80
2022/01/24 12:34:27;;;;;;;;;20.50;16.50;;;;;11.89;37.24;100142.13;6159493;22;103990;-80
2022/01/24 12:37:04;;;;;;;;;20.25;18.25;;;;;11.89;37.44;100147.53;6275622;22;103871;-80
2022/01/24 12:39:37;;;;;;;;;19.75;17.50;;;;;11.88;37.93;100146.72;6268660;22;104337;-79
2022/01/24 12:42:11;;;;;;;;;20.00;16.00;;;;;11.88;37.98;100162.97;6308825;22;102390;-80
2022/01/24 12:47:09;;;;;;;;;15.50;13.75;;;;;11.87;37.90;100155.00;6311502;22;102099;-80
2022/01/24 12:49:37;;;;;;;;;9.00;8.00;;;;;11.86;37.88;100158.72;6288084;22;102192;-80
2022/01/24 12:52:18;;;;;;;;;15.00;14.00;;;;;11.87;38.02;100155.00;6307202;22;102587;-78
2022/01/24 12:54:47;;;;;;;;;18.00;13.00;;;;;11.86;38.06;100145.19;6311829;22;104051;-80
2022/01/24 12:57:16;;;;;;;;;15.00;14.50;;;;;11.85;37.82;100140.75;6244270;22;102602;-79
2022/01/24 13:00:20;;;;;;;;;15.00;13.25;;;;;11.82;37.83;100152.81;6273420;22;102162;-80
2022/01/24 13:02:47;;;;;;;;;16.25;14.25;;;;;11.83;37.34;100150.94;6206197;22;102129;-79
2022/01/24 13:05:20;;;;;;;;;20.00;16.50;;;;;11.83;37.51;100148.25;6248098;22;104078;-80
2022/01/24 13:07:52;;;;;;;;;20.75;15.50;;;;;11.82;37.44;100141.97;6262563;22;103901;-79
2022/01/24 13:10:21;;;;;;;;;14.50;13.00;;;;;11.81;37.77;100151.09;6277455;22;102116;-80
2022/01/24 13:12:57;;;;;;;;;18.50;14.25;;;;;11.82;37.93;100139.25;6313354;22;102628;-80